sensor_id;sensor_type;location;lat;lon;timestamp;P1;durP1;ratioP1;P2;durP2;ratioP2
76729;SDS011;65653;53.106;18.046;2023-12-20T00:01:06;23.50;;;10.40;;
76729;SDS011;65653;53.106;18.046;2023-12-20T00:03:41;26.20;;;11.10;;
76729;SDS011;65653;53.106;18.046;2023-12-20T00:06:08;23.70;;;12.20;;
76729;SDS011;65653;53.106;18.046;2023-12-20T00:08:34;22.90;;;11.00;;
76729;SDS011;65653;53.106;18.046;2023-12-20T00:11:01;18.40;;;11.00;;
76729;SDS011;65653;53.106;18.046;2023-12-20T00:13:27;23.20;;;11.60;;
76729;SDS011;65653;53.106;18.046;2023-12-20T00:15:54;25.00;;;11.10;;
76729;SDS011;65653;53.106;18.046;2023-12-20T00:18:20;25.30;;;11.40;;
76729;SDS011;65653;53.106;18.046;2023-12-20T00:20:47;26.50;;;12.20;;
76729;SDS011;65653;53.106;18.046;2023-12-20T00:23:14;28.70;;;11.50;;
76729;SDS011;65653;53.106;18.046;2023-12-20T00:25:40;21.10;;;10.50;;
76729;SDS011;65653;53.106;18.046;2023-12-20T00:28:07;25.00;;;11.30;;
76729;SDS011;65653;53.106;18.046;2023-12-20T00:30:34;16.20;;;9.10;;
76729;SDS011;65653;53.106;18.046;2023-12-20T00:33:00;21.60;;;10.80;;
76729;SDS011;65653;53.106;18.046;2023-12-20T00:35:27;25.30;;;12.20;;
76729;SDS011;65653;53.106;18.046;2023-12-20T00:37:53;24.60;;;11.90;;
76729;SDS011;65653;53.106;18.046;2023-12-20T00:40:20;18.20;;;9.10;;
76729;SDS011;65653;53.106;18.046;2023-12-20T00:42:47;24.90;;;12.00;;
76729;SDS011;65653;53.106;18.046;2023-12-20T00:45:13;19.40;;;9.40;;
76729;SDS011;65653;53.106;18.046;2023-12-20T00:47:40;19.40;;;10.30;;
76729;SDS011;65653;53.106;18.046;2023-12-20T00:50:07;21.20;;;11.60;;
76729;SDS011;65653;53.106;18.046;2023-12-20T00:52:35;23.40;;;12.00;;
76729;SDS011;65653;53.106;18.046;2023-12-20T00:55:01;19.00;;;11.70;;
76729;SDS011;65653;53.106;18.046;2023-12-20T00:57:28;18.60;;;10.20;;
76729;SDS011;65653;53.106;18.046;2023-12-20T00:59:55;23.60;;;11.70;;
76729;SDS011;65653;53.106;18.046;2023-12-20T01:02:21;20.60;;;11.30;;
76729;SDS011;65653;53.106;18.046;2023-12-20T01:04:48;17.70;;;9.20;;
76729;SDS011;65653;53.106;18.046;2023-12-20T01:07:14;20.00;;;10.30;;
76729;SDS011;65653;53.106;18.046;2023-12-20T01:13:25;17.50;;;9.00;;
76729;SDS011;65653;53.106;18.046;2023-12-20T01:15:51;17.60;;;10.90;;
76729;SDS011;65653;53.106;18.046;2023-12-20T01:18:18;16.10;;;8.60;;
76729;SDS011;65653;53.106;18.046;2023-12-20T01:20:44;14.30;;;9.00;;
76729;SDS011;65653;53.106;18.046;2023-12-20T01:23:11;15.70;;;10.00;;
76729;SDS011;65653;53.106;18.046;2023-12-20T01:25:37;14.80;;;8.90;;
76729;SDS011;65653;53.106;18.046;2023-12-20T01:28:04;13.00;;;8.30;;
76729;SDS011;65653;53.106;18.046;2023-12-20T01:30:30;14.50;;;7.60;;
76729;SDS011;65653;53.106;18.046;2023-12-20T01:32:57;13.40;;;7.70;;
76729;SDS011;65653;53.106;18.046;2023-12-20T01:35:23;18.50;;;10.70;;
76729;SDS011;65653;53.106;18.046;2023-12-20T01:43:08;19.30;;;9.60;;
76729;SDS011;65653;53.106;18.046;2023-12-20T01:45:36;17.90;;;9.50;;
76729;SDS011;65653;53.106;18.046;2023-12-20T01:48:02;14.30;;;7.20;;
76729;SDS011;65653;53.106;18.046;2023-12-20T01:50:31;13.90;;;8.30;;
76729;SDS011;65653;53.106;18.046;2023-12-20T01:53:01;15.50;;;7.90;;
76729;SDS011;65653;53.106;18.046;2023-12-20T01:55:30;16.10;;;9.10;;
76729;SDS011;65653;53.106;18.046;2023-12-20T01:57:59;16.80;;;9.70;;
76729;SDS011;65653;53.106;18.046;2023-12-20T02:00:26;14.40;;;9.40;;
76729;SDS011;65653;53.106;18.046;2023-12-20T02:02:55;13.90;;;8.30;;
76729;SDS011;65653;53.106;18.046;2023-12-20T02:05:22;17.90;;;9.80;;
76729;SDS011;65653;53.106;18.046;2023-12-20T02:07:48;16.70;;;7.90;;
76729;SDS011;65653;53.106;18.046;2023-12-20T02:10:15;19.10;;;9.80;;
76729;SDS011;65653;53.106;18.046;2023-12-20T02:12:42;17.70;;;9.10;;
76729;SDS011;65653;53.106;18.046;2023-12-20T02:15:08;16.50;;;9.90;;
76729;SDS011;65653;53.106;18.046;2023-12-20T02:17:35;21.40;;;10.00;;
76729;SDS011;65653;53.106;18.046;2023-12-20T02:20:02;15.70;;;8.00;;
76729;SDS011;65653;53.106;18.046;2023-12-20T02:22:29;23.30;;;10.80;;
76729;SDS011;65653;53.106;18.046;2023-12-20T02:24:55;20.30;;;8.80;;
76729;SDS011;65653;53.106;18.046;2023-12-20T02:27:22;16.90;;;8.70;;
76729;SDS011;65653;53.106;18.046;2023-12-20T02:29:50;17.40;;;8.90;;
76729;SDS011;65653;53.106;18.046;2023-12-20T02:32:17;18.20;;;8.00;;
76729;SDS011;65653;53.106;18.046;2023-12-20T02:34:45;21.40;;;9.80;;
76729;SDS011;65653;53.106;18.046;2023-12-20T02:37:13;26.80;;;11.40;;
76729;SDS011;65653;53.106;18.046;2023-12-20T02:39:39;23.60;;;10.50;;
76729;SDS011;65653;53.106;18.046;2023-12-20T02:42:06;18.20;;;10.60;;
76729;SDS011;65653;53.106;18.046;2023-12-20T02:44:32;18.70;;;7.70;;
76729;SDS011;65653;53.106;18.046;2023-12-20T02:46:59;15.90;;;6.80;;
76729;SDS011;65653;53.106;18.046;2023-12-20T02:49:25;17.30;;;9.60;;
76729;SDS011;65653;53.106;18.046;2023-12-20T02:51:52;18.40;;;9.00;;
76729;SDS011;65653;53.106;18.046;2023-12-20T02:54:18;19.60;;;9.50;;
76729;SDS011;65653;53.106;18.046;2023-12-20T02:56:45;20.50;;;10.30;;
76729;SDS011;65653;53.106;18.046;2023-12-20T02:59:11;22.30;;;10.00;;
76729;SDS011;65653;53.106;18.046;2023-12-20T03:01:41;21.90;;;9.50;;
76729;SDS011;65653;53.106;18.046;2023-12-20T03:04:12;19.50;;;8.40;;
76729;SDS011;65653;53.106;18.046;2023-12-20T03:06:38;22.50;;;10.30;;
76729;SDS011;65653;53.106;18.046;2023-12-20T03:09:05;21.30;;;11.20;;
76729;SDS011;65653;53.106;18.046;2023-12-20T03:11:32;23.70;;;11.00;;
76729;SDS011;65653;53.106;18.046;2023-12-20T03:13:58;20.10;;;9.00;;
76729;SDS011;65653;53.106;18.046;2023-12-20T03:16:25;19.60;;;9.10;;
76729;SDS011;65653;53.106;18.046;2023-12-20T03:18:51;16.60;;;7.90;;
76729;SDS011;65653;53.106;18.046;2023-12-20T03:21:18;13.40;;;7.50;;
76729;SDS011;65653;53.106;18.046;2023-12-20T03:23:44;17.30;;;8.80;;
76729;SDS011;65653;53.106;18.046;2023-12-20T03:26:11;12.10;;;6.50;;
76729;SDS011;65653;53.106;18.046;2023-12-20T03:28:37;14.50;;;7.80;;
76729;SDS011;65653;53.106;18.046;2023-12-20T03:31:04;17.40;;;8.20;;
76729;SDS011;65653;53.106;18.046;2023-12-20T03:33:30;15.20;;;7.50;;
76729;SDS011;65653;53.106;18.046;2023-12-20T03:35:57;17.60;;;9.00;;
76729;SDS011;65653;53.106;18.046;2023-12-20T03:38:23;14.50;;;8.10;;
76729;SDS011;65653;53.106;18.046;2023-12-20T03:40:50;13.70;;;6.80;;
76729;SDS011;65653;53.106;18.046;2023-12-20T03:43:17;15.40;;;8.20;;
76729;SDS011;65653;53.106;18.046;2023-12-20T03:45:43;14.70;;;8.50;;
76729;SDS011;65653;53.106;18.046;2023-12-20T03:48:10;15.00;;;8.30;;
76729;SDS011;65653;53.106;18.046;2023-12-20T03:50:36;11.70;;;5.80;;
76729;SDS011;65653;53.106;18.046;2023-12-20T03:53:03;19.20;;;9.50;;
76729;SDS011;65653;53.106;18.046;2023-12-20T03:55:30;16.00;;;8.30;;
76729;SDS011;65653;53.106;18.046;2023-12-20T03:57:56;18.00;;;8.70;;
76729;SDS011;65653;53.106;18.046;2023-12-20T04:00:23;15.40;;;8.30;;
76729;SDS011;65653;53.106;18.046;2023-12-20T04:02:49;16.90;;;8.00;;
76729;SDS011;65653;53.106;18.046;2023-12-20T04:05:16;13.70;;;8.50;;
76729;SDS011;65653;53.106;18.046;2023-12-20T04:07:42;10.00;;;5.30;;
76729;SDS011;65653;53.106;18.046;2023-12-20T04:10:10;13.40;;;8.00;;
76729;SDS011;65653;53.106;18.046;2023-12-20T04:12:36;10.20;;;5.00;;
76729;SDS011;65653;53.106;18.046;2023-12-20T04:15:03;12.00;;;6.50;;
76729;SDS011;65653;53.106;18.046;2023-12-20T04:17:35;14.30;;;6.90;;
76729;SDS011;65653;53.106;18.046;2023-12-20T04:20:02;10.80;;;5.30;;
76729;SDS011;65653;53.106;18.046;2023-12-20T04:22:29;10.10;;;5.30;;
76729;SDS011;65653;53.106;18.046;2023-12-20T04:24:55;10.80;;;5.00;;
76729;SDS011;65653;53.106;18.046;2023-12-20T04:27:22;11.00;;;5.80;;
76729;SDS011;65653;53.106;18.046;2023-12-20T04:29:48;11.90;;;5.70;;
76729;SDS011;65653;53.106;18.046;2023-12-20T04:32:14;11.60;;;6.00;;
76729;SDS011;65653;53.106;18.046;2023-12-20T04:34:41;12.10;;;5.30;;
76729;SDS011;65653;53.106;18.046;2023-12-20T04:37:07;11.90;;;5.00;;
76729;SDS011;65653;53.106;18.046;2023-12-20T04:39:34;11.00;;;4.50;;
76729;SDS011;65653;53.106;18.046;2023-12-20T04:42:00;10.30;;;4.90;;
76729;SDS011;65653;53.106;18.046;2023-12-20T04:44:27;9.30;;;4.50;;
76729;SDS011;65653;53.106;18.046;2023-12-20T04:46:53;7.40;;;3.80;;
76729;SDS011;65653;53.106;18.046;2023-12-20T04:49:20;9.10;;;4.20;;
76729;SDS011;65653;53.106;18.046;2023-12-20T04:51:46;6.10;;;4.10;;
76729;SDS011;65653;53.106;18.046;2023-12-20T04:54:13;8.30;;;3.70;;
76729;SDS011;65653;53.106;18.046;2023-12-20T04:56:40;6.00;;;2.90;;
76729;SDS011;65653;53.106;18.046;2023-12-20T04:59:06;5.40;;;2.70;;
76729;SDS011;65653;53.106;18.046;2023-12-20T05:01:32;5.80;;;3.20;;
76729;SDS011;65653;53.106;18.046;2023-12-20T05:03:59;5.50;;;3.20;;
76729;SDS011;65653;53.106;18.046;2023-12-20T05:06:25;4.90;;;2.90;;
76729;SDS011;65653;53.106;18.046;2023-12-20T05:08:52;7.50;;;3.10;;
76729;SDS011;65653;53.106;18.046;2023-12-20T05:11:18;6.40;;;3.00;;
76729;SDS011;65653;53.106;18.046;2023-12-20T05:13:45;5.50;;;2.70;;
76729;SDS011;65653;53.106;18.046;2023-12-20T05:16:11;4.40;;;2.30;;
76729;SDS011;65653;53.106;18.046;2023-12-20T05:18:40;5.10;;;2.50;;
76729;SDS011;65653;53.106;18.046;2023-12-20T05:21:06;4.50;;;2.30;;
76729;SDS011;65653;53.106;18.046;2023-12-20T05:23:33;9.00;;;2.30;;
76729;SDS011;65653;53.106;18.046;2023-12-20T05:25:59;9.50;;;3.50;;
76729;SDS011;65653;53.106;18.046;2023-12-20T05:28:26;7.10;;;3.20;;
76729;SDS011;65653;53.106;18.046;2023-12-20T05:30:53;5.20;;;2.60;;
76729;SDS011;65653;53.106;18.046;2023-12-20T05:33:20;6.50;;;3.20;;
76729;SDS011;65653;53.106;18.046;2023-12-20T05:35:46;8.30;;;3.50;;
76729;SDS011;65653;53.106;18.046;2023-12-20T05:38:13;9.30;;;4.20;;
76729;SDS011;65653;53.106;18.046;2023-12-20T05:40:39;10.20;;;4.50;;
76729;SDS011;65653;53.106;18.046;2023-12-20T05:43:06;11.00;;;5.00;;
76729;SDS011;65653;53.106;18.046;2023-12-20T05:45:32;10.20;;;4.60;;
76729;SDS011;65653;53.106;18.046;2023-12-20T05:47:58;10.50;;;4.50;;
76729;SDS011;65653;53.106;18.046;2023-12-20T05:50:25;7.50;;;3.70;;
76729;SDS011;65653;53.106;18.046;2023-12-20T05:52:51;14.10;;;5.20;;
76729;SDS011;65653;53.106;18.046;2023-12-20T05:55:18;8.10;;;4.30;;
76729;SDS011;65653;53.106;18.046;2023-12-20T05:57:44;10.60;;;5.20;;
76729;SDS011;65653;53.106;18.046;2023-12-20T06:00:11;15.80;;;5.30;;
76729;SDS011;65653;53.106;18.046;2023-12-20T06:02:39;12.40;;;5.40;;
76729;SDS011;65653;53.106;18.046;2023-12-20T06:05:06;12.40;;;5.90;;
76729;SDS011;65653;53.106;18.046;2023-12-20T06:07:32;14.40;;;7.30;;
76729;SDS011;65653;53.106;18.046;2023-12-20T06:09:59;16.40;;;7.00;;
76729;SDS011;65653;53.106;18.046;2023-12-20T06:12:25;17.00;;;7.20;;
76729;SDS011;65653;53.106;18.046;2023-12-20T06:14:53;18.50;;;7.40;;
76729;SDS011;65653;53.106;18.046;2023-12-20T06:17:20;15.80;;;7.10;;
76729;SDS011;65653;53.106;18.046;2023-12-20T06:19:47;15.30;;;7.20;;
76729;SDS011;65653;53.106;18.046;2023-12-20T06:22:15;13.00;;;5.60;;
76729;SDS011;65653;53.106;18.046;2023-12-20T06:24:42;19.80;;;6.70;;
76729;SDS011;65653;53.106;18.046;2023-12-20T06:27:08;14.00;;;7.50;;
76729;SDS011;65653;53.106;18.046;2023-12-20T06:29:35;18.70;;;8.40;;
76729;SDS011;65653;53.106;18.046;2023-12-20T06:32:01;18.00;;;7.70;;
76729;SDS011;65653;53.106;18.046;2023-12-20T06:34:28;19.50;;;8.00;;
76729;SDS011;65653;53.106;18.046;2023-12-20T06:36:55;19.50;;;8.90;;
76729;SDS011;65653;53.106;18.046;2023-12-20T06:39:21;22.40;;;9.40;;
76729;SDS011;65653;53.106;18.046;2023-12-20T06:41:50;23.00;;;10.40;;
76729;SDS011;65653;53.106;18.046;2023-12-20T06:44:17;20.00;;;9.60;;
76729;SDS011;65653;53.106;18.046;2023-12-20T06:46:44;25.80;;;10.50;;
76729;SDS011;65653;53.106;18.046;2023-12-20T06:49:11;20.70;;;8.10;;
76729;SDS011;65653;53.106;18.046;2023-12-20T06:51:38;17.00;;;7.40;;
76729;SDS011;65653;53.106;18.046;2023-12-20T06:54:05;14.60;;;5.70;;
76729;SDS011;65653;53.106;18.046;2023-12-20T06:56:33;17.40;;;6.50;;
76729;SDS011;65653;53.106;18.046;2023-12-20T06:58:59;16.30;;;6.80;;
76729;SDS011;65653;53.106;18.046;2023-12-20T07:01:26;16.30;;;6.80;;
76729;SDS011;65653;53.106;18.046;2023-12-20T07:03:57;16.70;;;6.90;;
76729;SDS011;65653;53.106;18.046;2023-12-20T07:06:24;16.70;;;7.10;;
76729;SDS011;65653;53.106;18.046;2023-12-20T07:08:52;21.00;;;8.20;;
76729;SDS011;65653;53.106;18.046;2023-12-20T07:11:19;15.40;;;8.00;;
76729;SDS011;65653;53.106;18.046;2023-12-20T07:13:45;16.00;;;7.60;;
76729;SDS011;65653;53.106;18.046;2023-12-20T07:16:14;16.30;;;7.10;;
76729;SDS011;65653;53.106;18.046;2023-12-20T07:18:42;21.10;;;8.10;;
76729;SDS011;65653;53.106;18.046;2023-12-20T07:21:08;19.50;;;7.60;;
76729;SDS011;65653;53.106;18.046;2023-12-20T07:23:35;18.50;;;7.90;;
76729;SDS011;65653;53.106;18.046;2023-12-20T07:26:01;16.40;;;7.40;;
76729;SDS011;65653;53.106;18.046;2023-12-20T07:28:28;22.30;;;8.40;;
76729;SDS011;65653;53.106;18.046;2023-12-20T07:30:54;20.40;;;7.60;;
76729;SDS011;65653;53.106;18.046;2023-12-20T07:33:21;17.20;;;7.20;;
76729;SDS011;65653;53.106;18.046;2023-12-20T07:35:48;16.60;;;6.10;;
76729;SDS011;65653;53.106;18.046;2023-12-20T07:38:14;15.70;;;7.30;;
76729;SDS011;65653;53.106;18.046;2023-12-20T07:40:41;18.50;;;7.10;;
76729;SDS011;65653;53.106;18.046;2023-12-20T07:43:08;16.20;;;7.40;;
76729;SDS011;65653;53.106;18.046;2023-12-20T07:45:34;16.60;;;7.10;;
76729;SDS011;65653;53.106;18.046;2023-12-20T07:48:01;17.30;;;7.80;;
76729;SDS011;65653;53.106;18.046;2023-12-20T07:50:27;14.00;;;7.10;;
76729;SDS011;65653;53.106;18.046;2023-12-20T07:52:54;14.70;;;5.20;;
76729;SDS011;65653;53.106;18.046;2023-12-20T07:55:21;13.10;;;5.30;;
76729;SDS011;65653;53.106;18.046;2023-12-20T07:57:49;17.00;;;5.50;;
76729;SDS011;65653;53.106;18.046;2023-12-20T08:00:15;10.50;;;5.00;;
76729;SDS011;65653;53.106;18.046;2023-12-20T08:02:42;10.40;;;4.80;;
76729;SDS011;65653;53.106;18.046;2023-12-20T08:05:09;10.70;;;4.70;;
76729;SDS011;65653;53.106;18.046;2023-12-20T08:07:36;12.60;;;4.30;;
76729;SDS011;65653;53.106;18.046;2023-12-20T08:10:03;15.80;;;5.90;;
76729;SDS011;65653;53.106;18.046;2023-12-20T08:12:30;14.70;;;5.30;;
76729;SDS011;65653;53.106;18.046;2023-12-20T08:14:57;12.80;;;5.30;;
76729;SDS011;65653;53.106;18.046;2023-12-20T08:17:24;12.00;;;5.20;;
76729;SDS011;65653;53.106;18.046;2023-12-20T08:19:51;11.50;;;5.50;;
76729;SDS011;65653;53.106;18.046;2023-12-20T08:22:18;10.30;;;5.10;;
76729;SDS011;65653;53.106;18.046;2023-12-20T08:24:44;8.30;;;4.30;;
76729;SDS011;65653;53.106;18.046;2023-12-20T08:27:11;11.00;;;4.50;;
76729;SDS011;65653;53.106;18.046;2023-12-20T08:29:40;8.10;;;3.50;;
76729;SDS011;65653;53.106;18.046;2023-12-20T08:32:07;9.70;;;4.40;;
76729;SDS011;65653;53.106;18.046;2023-12-20T08:34:34;12.70;;;4.50;;
76729;SDS011;65653;53.106;18.046;2023-12-20T08:37:00;7.90;;;3.80;;
76729;SDS011;65653;53.106;18.046;2023-12-20T08:39:27;9.20;;;2.90;;
76729;SDS011;65653;53.106;18.046;2023-12-20T08:41:56;6.60;;;2.80;;
76729;SDS011;65653;53.106;18.046;2023-12-20T08:44:23;4.30;;;2.40;;
76729;SDS011;65653;53.106;18.046;2023-12-20T08:46:49;5.80;;;2.50;;
76729;SDS011;65653;53.106;18.046;2023-12-20T08:49:16;6.90;;;2.70;;
76729;SDS011;65653;53.106;18.046;2023-12-20T08:51:43;6.60;;;2.10;;
76729;SDS011;65653;53.106;18.046;2023-12-20T08:54:10;8.30;;;3.10;;
76729;SDS011;65653;53.106;18.046;2023-12-20T08:56:36;7.90;;;3.50;;
76729;SDS011;65653;53.106;18.046;2023-12-20T08:59:03;8.40;;;3.10;;
76729;SDS011;65653;53.106;18.046;2023-12-20T09:01:29;10.00;;;3.30;;
76729;SDS011;65653;53.106;18.046;2023-12-20T09:03:56;8.30;;;3.20;;
76729;SDS011;65653;53.106;18.046;2023-12-20T09:06:22;10.50;;;4.20;;
76729;SDS011;65653;53.106;18.046;2023-12-20T09:08:49;8.90;;;3.50;;
76729;SDS011;65653;53.106;18.046;2023-12-20T09:11:16;9.80;;;4.30;;
76729;SDS011;65653;53.106;18.046;2023-12-20T09:13:43;8.60;;;3.60;;
76729;SDS011;65653;53.106;18.046;2023-12-20T09:16:10;8.90;;;4.10;;
76729;SDS011;65653;53.106;18.046;2023-12-20T09:18:39;7.60;;;4.20;;
76729;SDS011;65653;53.106;18.046;2023-12-20T09:21:05;11.50;;;4.30;;
76729;SDS011;65653;53.106;18.046;2023-12-20T09:23:32;6.80;;;3.50;;
76729;SDS011;65653;53.106;18.046;2023-12-20T09:25:58;6.80;;;3.80;;
76729;SDS011;65653;53.106;18.046;2023-12-20T09:28:25;8.40;;;3.60;;
76729;SDS011;65653;53.106;18.046;2023-12-20T09:30:52;6.20;;;3.10;;
76729;SDS011;65653;53.106;18.046;2023-12-20T09:33:19;4.20;;;2.60;;
76729;SDS011;65653;53.106;18.046;2023-12-20T09:35:46;7.70;;;3.00;;
76729;SDS011;65653;53.106;18.046;2023-12-20T09:38:13;5.90;;;2.60;;
76729;SDS011;65653;53.106;18.046;2023-12-20T09:40:42;7.40;;;4.30;;
76729;SDS011;65653;53.106;18.046;2023-12-20T09:43:15;3.70;;;2.20;;
76729;SDS011;65653;53.106;18.046;2023-12-20T09:45:47;3.20;;;2.40;;
76729;SDS011;65653;53.106;18.046;2023-12-20T09:48:14;5.00;;;2.20;;
76729;SDS011;65653;53.106;18.046;2023-12-20T09:50:45;7.20;;;2.90;;
76729;SDS011;65653;53.106;18.046;2023-12-20T09:53:14;4.00;;;2.30;;
76729;SDS011;65653;53.106;18.046;2023-12-20T09:55:42;4.80;;;2.50;;
76729;SDS011;65653;53.106;18.046;2023-12-20T09:58:09;7.40;;;2.30;;
76729;SDS011;65653;53.106;18.046;2023-12-20T10:00:36;3.70;;;2.20;;
76729;SDS011;65653;53.106;18.046;2023-12-20T10:03:02;8.40;;;2.90;;
76729;SDS011;65653;53.106;18.046;2023-12-20T10:05:36;4.40;;;2.40;;
76729;SDS011;65653;53.106;18.046;2023-12-20T10:08:02;7.30;;;3.00;;
76729;SDS011;65653;53.106;18.046;2023-12-20T10:10:29;8.60;;;2.70;;
76729;SDS011;65653;53.106;18.046;2023-12-20T10:13:10;5.30;;;2.50;;
76729;SDS011;65653;53.106;18.046;2023-12-20T10:15:38;3.30;;;2.10;;
76729;SDS011;65653;53.106;18.046;2023-12-20T10:18:05;4.60;;;2.40;;
76729;SDS011;65653;53.106;18.046;2023-12-20T10:20:32;3.50;;;2.10;;
76729;SDS011;65653;53.106;18.046;2023-12-20T10:23:00;2.80;;;2.30;;
76729;SDS011;65653;53.106;18.046;2023-12-20T10:25:27;3.40;;;2.10;;
76729;SDS011;65653;53.106;18.046;2023-12-20T10:28:08;4.80;;;2.20;;
76729;SDS011;65653;53.106;18.046;2023-12-20T10:30:39;5.30;;;2.00;;
76729;SDS011;65653;53.106;18.046;2023-12-20T10:33:08;4.10;;;1.50;;
76729;SDS011;65653;53.106;18.046;2023-12-20T10:35:36;3.80;;;2.00;;
76729;SDS011;65653;53.106;18.046;2023-12-20T10:38:04;4.50;;;2.00;;
76729;SDS011;65653;53.106;18.046;2023-12-20T10:40:35;5.20;;;2.00;;
76729;SDS011;65653;53.106;18.046;2023-12-20T10:43:03;4.50;;;1.90;;
76729;SDS011;65653;53.106;18.046;2023-12-20T10:45:30;3.90;;;1.90;;
76729;SDS011;65653;53.106;18.046;2023-12-20T10:47:58;5.20;;;1.70;;
76729;SDS011;65653;53.106;18.046;2023-12-20T10:50:27;4.90;;;2.30;;
76729;SDS011;65653;53.106;18.046;2023-12-20T10:52:55;6.80;;;2.20;;
76729;SDS011;65653;53.106;18.046;2023-12-20T10:55:22;3.20;;;1.80;;
76729;SDS011;65653;53.106;18.046;2023-12-20T10:57:54;4.10;;;2.00;;
76729;SDS011;65653;53.106;18.046;2023-12-20T11:00:28;4.90;;;2.30;;
76729;SDS011;65653;53.106;18.046;2023-12-20T11:02:58;4.40;;;1.70;;
76729;SDS011;65653;53.106;18.046;2023-12-20T11:05:36;5.10;;;2.20;;
76729;SDS011;65653;53.106;18.046;2023-12-20T11:08:12;4.00;;;2.10;;
76729;SDS011;65653;53.106;18.046;2023-12-20T11:10:54;3.90;;;1.70;;
76729;SDS011;65653;53.106;18.046;2023-12-20T11:13:34;4.90;;;2.10;;
76729;SDS011;65653;53.106;18.046;2023-12-20T11:16:07;6.00;;;2.00;;
76729;SDS011;65653;53.106;18.046;2023-12-20T11:18:34;7.90;;;2.70;;
76729;SDS011;65653;53.106;18.046;2023-12-20T11:21:01;9.30;;;2.40;;
76729;SDS011;65653;53.106;18.046;2023-12-20T11:23:30;11.30;;;2.70;;
76729;SDS011;65653;53.106;18.046;2023-12-20T11:26:01;6.90;;;2.50;;
76729;SDS011;65653;53.106;18.046;2023-12-20T11:28:31;5.40;;;2.10;;
76729;SDS011;65653;53.106;18.046;2023-12-20T11:30:58;7.10;;;2.30;;
76729;SDS011;65653;53.106;18.046;2023-12-20T11:33:29;8.10;;;2.20;;
76729;SDS011;65653;53.106;18.046;2023-12-20T11:36:00;5.60;;;2.30;;
76729;SDS011;65653;53.106;18.046;2023-12-20T11:38:27;4.60;;;1.90;;
76729;SDS011;65653;53.106;18.046;2023-12-20T11:40:54;5.30;;;1.90;;
76729;SDS011;65653;53.106;18.046;2023-12-20T11:43:38;8.60;;;2.80;;
76729;SDS011;65653;53.106;18.046;2023-12-20T11:46:06;5.40;;;2.70;;
76729;SDS011;65653;53.106;18.046;2023-12-20T11:48:38;5.30;;;2.40;;
76729;SDS011;65653;53.106;18.046;2023-12-20T11:51:12;8.30;;;2.40;;
76729;SDS011;65653;53.106;18.046;2023-12-20T11:53:40;4.10;;;1.70;;
76729;SDS011;65653;53.106;18.046;2023-12-20T11:56:08;10.40;;;2.80;;
76729;SDS011;65653;53.106;18.046;2023-12-20T11:58:36;6.30;;;2.70;;
76729;SDS011;65653;53.106;18.046;2023-12-20T12:01:03;6.60;;;2.20;;
76729;SDS011;65653;53.106;18.046;2023-12-20T12:03:30;5.80;;;2.80;;
76729;SDS011;65653;53.106;18.046;2023-12-20T12:05:57;5.50;;;2.40;;
76729;SDS011;65653;53.106;18.046;2023-12-20T12:08:25;5.40;;;2.50;;
76729;SDS011;65653;53.106;18.046;2023-12-20T12:10:51;4.80;;;2.20;;
76729;SDS011;65653;53.106;18.046;2023-12-20T12:13:18;5.40;;;2.20;;
76729;SDS011;65653;53.106;18.046;2023-12-20T12:15:45;7.40;;;2.70;;
76729;SDS011;65653;53.106;18.046;2023-12-20T12:18:15;4.60;;;1.80;;
76729;SDS011;65653;53.106;18.046;2023-12-20T12:20:42;4.60;;;1.80;;
76729;SDS011;65653;53.106;18.046;2023-12-20T12:23:11;4.00;;;1.80;;
76729;SDS011;65653;53.106;18.046;2023-12-20T12:25:38;7.20;;;2.10;;
76729;SDS011;65653;53.106;18.046;2023-12-20T12:28:04;5.60;;;2.60;;
76729;SDS011;65653;53.106;18.046;2023-12-20T12:30:31;7.60;;;2.60;;
76729;SDS011;65653;53.106;18.046;2023-12-20T12:32:58;6.20;;;3.00;;
76729;SDS011;65653;53.106;18.046;2023-12-20T12:35:25;5.30;;;2.30;;
76729;SDS011;65653;53.106;18.046;2023-12-20T12:37:51;6.50;;;1.70;;
76729;SDS011;65653;53.106;18.046;2023-12-20T12:40:18;4.00;;;2.10;;
76729;SDS011;65653;53.106;18.046;2023-12-20T12:42:47;3.90;;;2.10;;
76729;SDS011;65653;53.106;18.046;2023-12-20T12:45:14;6.40;;;2.60;;
76729;SDS011;65653;53.106;18.046;2023-12-20T12:47:42;6.60;;;2.40;;
76729;SDS011;65653;53.106;18.046;2023-12-20T12:50:08;7.80;;;2.80;;
76729;SDS011;65653;53.106;18.046;2023-12-20T12:52:35;3.30;;;1.50;;
76729;SDS011;65653;53.106;18.046;2023-12-20T12:55:03;4.70;;;1.70;;
76729;SDS011;65653;53.106;18.046;2023-12-20T12:57:31;4.30;;;2.10;;
76729;SDS011;65653;53.106;18.046;2023-12-20T12:59:57;4.10;;;1.60;;
76729;SDS011;65653;53.106;18.046;2023-12-20T13:02:29;4.30;;;1.70;;
76729;SDS011;65653;53.106;18.046;2023-12-20T13:04:55;4.70;;;2.10;;
76729;SDS011;65653;53.106;18.046;2023-12-20T13:07:22;3.60;;;1.90;;
76729;SDS011;65653;53.106;18.046;2023-12-20T13:09:49;3.30;;;1.60;;
76729;SDS011;65653;53.106;18.046;2023-12-20T13:12:15;4.00;;;1.70;;
76729;SDS011;65653;53.106;18.046;2023-12-20T13:14:45;5.40;;;1.80;;
76729;SDS011;65653;53.106;18.046;2023-12-20T13:17:15;6.70;;;2.50;;
76729;SDS011;65653;53.106;18.046;2023-12-20T13:19:42;7.10;;;2.00;;
76729;SDS011;65653;53.106;18.046;2023-12-20T13:22:09;5.50;;;2.00;;
76729;SDS011;65653;53.106;18.046;2023-12-20T13:24:36;5.50;;;2.40;;
76729;SDS011;65653;53.106;18.046;2023-12-20T13:27:02;4.50;;;2.00;;
76729;SDS011;65653;53.106;18.046;2023-12-20T13:29:29;2.80;;;2.20;;
76729;SDS011;65653;53.106;18.046;2023-12-20T13:31:56;6.30;;;2.60;;
76729;SDS011;65653;53.106;18.046;2023-12-20T13:34:23;6.70;;;2.80;;
76729;SDS011;65653;53.106;18.046;2023-12-20T13:36:50;6.90;;;3.20;;
76729;SDS011;65653;53.106;18.046;2023-12-20T13:39:17;5.40;;;2.50;;
76729;SDS011;65653;53.106;18.046;2023-12-20T13:41:44;4.40;;;2.50;;
76729;SDS011;65653;53.106;18.046;2023-12-20T13:44:11;3.70;;;2.20;;
76729;SDS011;65653;53.106;18.046;2023-12-20T13:46:38;5.70;;;3.10;;
76729;SDS011;65653;53.106;18.046;2023-12-20T13:49:06;7.20;;;3.00;;
76729;SDS011;65653;53.106;18.046;2023-12-20T13:51:32;5.80;;;2.70;;
76729;SDS011;65653;53.106;18.046;2023-12-20T13:53:59;4.90;;;2.90;;
76729;SDS011;65653;53.106;18.046;2023-12-20T13:56:25;10.80;;;2.80;;
76729;SDS011;65653;53.106;18.046;2023-12-20T13:58:52;5.50;;;2.90;;
76729;SDS011;65653;53.106;18.046;2023-12-20T14:01:18;7.40;;;3.00;;
76729;SDS011;65653;53.106;18.046;2023-12-20T14:03:45;9.80;;;3.30;;
76729;SDS011;65653;53.106;18.046;2023-12-20T14:06:12;9.70;;;3.60;;
76729;SDS011;65653;53.106;18.046;2023-12-20T14:08:41;7.80;;;2.60;;
76729;SDS011;65653;53.106;18.046;2023-12-20T14:11:08;9.00;;;2.80;;
76729;SDS011;65653;53.106;18.046;2023-12-20T14:13:35;6.90;;;3.60;;
76729;SDS011;65653;53.106;18.046;2023-12-20T14:16:02;4.50;;;2.50;;
76729;SDS011;65653;53.106;18.046;2023-12-20T14:18:30;7.20;;;2.80;;
76729;SDS011;65653;53.106;18.046;2023-12-20T14:20:57;7.70;;;2.90;;
76729;SDS011;65653;53.106;18.046;2023-12-20T14:23:23;7.00;;;2.80;;
76729;SDS011;65653;53.106;18.046;2023-12-20T14:25:50;3.80;;;2.10;;
76729;SDS011;65653;53.106;18.046;2023-12-20T14:28:16;8.80;;;2.70;;
76729;SDS011;65653;53.106;18.046;2023-12-20T14:30:44;5.80;;;2.70;;
76729;SDS011;65653;53.106;18.046;2023-12-20T14:33:10;8.70;;;2.80;;
76729;SDS011;65653;53.106;18.046;2023-12-20T14:35:37;6.20;;;2.70;;